Time;durP1;ratioP1;P1;durP2;ratioP2;P2;SDS_P1;SDS_P2;PMS_P1;PMS_P2;Temp;Humidity;BMP_temperature;BMP_pressure;BME280_temperature;BME280_humidity;BME280_pressure;Samples;Min_cycle;Max_cycle;Signal;HPM_P1;HPM_P2
2024/01/05 00:01:07;;;;;;;0.40;0.40;;;;;;;-146.42;100.00;61981.06;4995620;28;20676;-66
2024/01/05 00:03:32;;;;;;;0.40;0.40;;;;;;;-146.42;100.00;61981.06;5004217;28;20179;-66
2024/01/05 00:05:57;;;;;;;0.40;0.40;;;;;;;-146.42;100.00;61981.06;5011020;28;20230;-65
2024/01/05 00:08:23;;;;;;;0.50;0.50;;;;;;;-146.42;100.00;61981.06;5010955;28;20556;-65
2024/01/05 00:10:48;;;;;;;0.40;0.40;;;;;;;-146.42;100.00;61981.06;5010914;28;21059;-66
2024/01/05 00:13:14;;;;;;;0.40;0.40;;;;;;;-146.42;100.00;61981.06;5010704;28;20695;-66
2024/01/05 00:15:40;;;;;;;0.40;0.40;;;;;;;-146.42;100.00;61981.06;5010883;28;20176;-66
2024/01/05 00:18:06;;;;;;;0.40;0.40;;;;;;;-146.42;100.00;61981.06;5010729;28;20187;-66
2024/01/05 00:20:32;;;;;;;0.40;0.40;;;;;;;-146.42;100.00;61981.06;5010601;28;20694;-66
2024/01/05 00:22:57;;;;;;;0.40;0.40;;;;;;;-146.42;100.00;61981.06;5010546;28;20202;-66
2024/01/05 00:25:23;;;;;;;0.50;0.50;;;;;;;-146.42;100.00;61981.06;5010593;28;20577;-66
2024/01/05 00:27:51;;;;;;;0.60;0.60;;;;;;;-146.42;100.00;61981.06;5010679;28;20177;-66
2024/01/05 00:30:17;;;;;;;0.40;0.40;;;;;;;-146.42;100.00;61981.06;5010581;28;20660;-66
2024/01/05 00:32:42;;;;;;;0.40;0.40;;;;;;;-146.42;100.00;61981.06;5006725;28;20188;-66
2024/01/05 00:35:08;;;;;;;0.40;0.40;;;;;;;-146.42;100.00;61981.06;5010655;28;20176;-66
2024/01/05 00:37:33;;;;;;;2.60;2.40;;;;;;;-146.42;100.00;61981.06;5010477;28;20184;-66
2024/01/05 00:39:59;;;;;;;0.40;0.40;;;;;;;-146.42;100.00;61981.06;5010383;28;20183;-66
2024/01/05 00:42:24;;;;;;;0.47;0.47;;;;;;;-146.42;100.00;61981.06;5010484;28;20172;-66
2024/01/05 00:44:50;;;;;;;0.40;0.40;;;;;;;-146.42;100.00;61981.06;5010581;28;20608;-66
2024/01/05 00:47:16;;;;;;;1.13;1.13;;;;;;;-146.42;100.00;61981.06;5010471;28;20199;-66
2024/01/05 00:49:41;;;;;;;0.67;0.67;;;;;;;-146.42;100.00;61981.06;5010421;28;20190;-67
2024/01/05 00:52:07;;;;;;;0.60;0.60;;;;;;;-146.42;100.00;61981.06;5010755;28;20180;-66
2024/01/05 00:54:32;;;;;;;0.50;0.50;;;;;;;-146.42;100.00;61981.06;5010496;28;20187;-66
2024/01/05 00:56:58;;;;;;;0.40;0.40;;;;;;;-146.42;100.00;61981.06;5010413;28;20177;-66
2024/01/05 00:59:23;;;;;;;1.03;0.97;;;;;;;-146.42;100.00;61981.06;5010412;28;20184;-66
2024/01/05 01:01:49;;;;;;;0.40;0.40;;;;;;;-146.42;100.00;61981.06;5010158;28;20176;-67
2024/01/05 01:04:14;;;;;;;0.80;0.80;;;;;;;-146.42;100.00;61981.06;5010416;28;20174;-66
2024/01/05 01:06:40;;;;;;;0.40;0.40;;;;;;;-146.42;100.00;61981.06;5013268;28;20179;-66
2024/01/05 01:09:07;;;;;;;0.40;0.40;;;;;;;-146.42;100.00;61981.06;5013567;28;20199;-67
2024/01/05 01:11:32;;;;;;;0.40;0.40;;;;;;;-146.42;100.00;61981.06;5014001;28;20173;-66
2024/01/05 01:13:58;;;;;;;0.40;0.40;;;;;;;-146.42;100.00;61981.06;5013646;28;20204;-66
2024/01/05 01:16:23;;;;;;;0.60;0.60;;;;;;;-146.42;100.00;61981.06;5014112;28;20173;-67
2024/01/05 01:18:49;;;;;;;0.40;0.40;;;;;;;-146.42;100.00;61981.06;5013839;28;20204;-66
2024/01/05 01:21:14;;;;;;;0.40;0.40;;;;;;;-146.42;100.00;61981.06;5013777;28;20184;-66
2024/01/05 01:23:39;;;;;;;0.40;0.40;;;;;;;-146.42;100.00;61981.06;5013980;28;20207;-66
2024/01/05 01:26:05;;;;;;;0.53;0.53;;;;;;;-146.42;100.00;61981.06;5013748;28;20726;-66
2024/01/05 01:28:31;;;;;;;0.40;0.40;;;;;;;-146.42;100.00;61981.06;5014076;28;20176;-65
2024/01/05 01:30:57;;;;;;;0.57;0.57;;;;;;;-146.42;100.00;61981.06;5013724;28;20180;-66
2024/01/05 01:33:22;;;;;;;0.40;0.40;;;;;;;-146.42;100.00;61981.06;5013642;28;20204;-66
2024/01/05 01:35:48;;;;;;;0.40;0.40;;;;;;;-146.42;100.00;61981.06;5013530;28;20172;-66
2024/01/05 01:38:13;;;;;;;0.40;0.40;;;;;;;-146.42;100.00;61981.06;5013349;28;20181;-66
2024/01/05 01:40:45;;;;;;;0.40;0.40;;;;;;;-146.42;100.00;61981.06;5013637;28;20521;-66
2024/01/05 01:43:22;;;;;;;0.40;0.40;;;;;;;-146.42;100.00;61981.06;5013486;28;20173;-66
2024/01/05 01:45:48;;;;;;;0.40;0.40;;;;;;;-146.42;100.00;61981.06;5013302;28;20180;-66
2024/01/05 01:48:16;;;;;;;0.40;0.40;;;;;;;-146.42;100.00;61981.06;5013311;28;20173;-66
2024/01/05 01:50:41;;;;;;;0.40;0.40;;;;;;;-146.42;100.00;61981.06;5013218;28;20184;-66
2024/01/05 01:53:08;;;;;;;0.40;0.40;;;;;;;-146.42;100.00;61981.06;5013349;28;20211;-66
2024/01/05 01:55:34;;;;;;;0.40;0.40;;;;;;;-146.42;100.00;61981.06;5013113;28;20263;-66
2024/01/05 01:57:59;;;;;;;0.40;0.40;;;;;;;-146.42;100.00;61981.06;5013005;28;20263;-66
2024/01/05 02:00:25;;;;;;;0.40;0.40;;;;;;;-146.42;100.00;61981.06;5013073;28;20242;-66
2024/01/05 02:02:53;;;;;;;0.40;0.40;;;;;;;-146.42;100.00;61981.06;5013050;28;20682;-66
2024/01/05 02:05:19;;;;;;;0.60;0.60;;;;;;;-146.42;100.00;61981.06;5013044;28;20255;-66
2024/01/05 02:07:44;;;;;;;0.50;0.50;;;;;;;-146.42;100.00;61981.06;5012842;28;20180;-66
2024/01/05 02:10:10;;;;;;;0.40;0.40;;;;;;;-146.42;100.00;61981.06;5013119;28;21017;-66
2024/01/05 02:12:36;;;;;;;0.70;0.70;;;;;;;-146.42;100.00;61981.06;5012970;28;20203;-66
2024/01/05 02:15:01;;;;;;;0.40;0.40;;;;;;;-146.42;100.00;61981.06;5012605;28;20177;-66
2024/01/05 02:17:31;;;;;;;0.40;0.40;;;;;;;-146.42;100.00;61981.06;5011647;28;20590;-66
2024/01/05 02:19:57;;;;;;;0.40;0.40;;;;;;;-146.42;100.00;61981.06;5012603;28;20192;-66
2024/01/05 02:22:26;;;;;;;0.53;0.53;;;;;;;-146.42;100.00;61981.06;5012648;28;20559;-66
2024/01/05 02:24:52;;;;;;;1.57;1.47;;;;;;;-146.42;100.00;61981.06;5012803;28;20250;-66
2024/01/05 02:27:17;;;;;;;0.47;0.47;;;;;;;-146.42;100.00;61981.06;5012668;28;20176;-66
2024/01/05 02:29:43;;;;;;;0.50;0.50;;;;;;;-146.42;100.00;61981.06;5012489;28;20238;-66
2024/01/05 02:32:08;;;;;;;0.53;0.53;;;;;;;-146.42;100.00;61981.06;4994848;28;20165;-66
2024/01/05 02:34:34;;;;;;;0.57;0.57;;;;;;;-146.42;100.00;61981.06;5012335;28;20615;-66
2024/01/05 02:36:59;;;;;;;0.40;0.40;;;;;;;-146.42;100.00;61981.06;5012291;28;20172;-66
2024/01/05 02:39:25;;;;;;;0.40;0.40;;;;;;;-146.42;100.00;61981.06;5012355;28;20168;-66
2024/01/05 02:41:50;;;;;;;0.40;0.40;;;;;;;-146.42;100.00;61981.06;5012444;28;20737;-66
2024/01/05 02:44:16;;;;;;;1.27;1.27;;;;;;;-146.42;100.00;61981.06;5012138;28;20168;-66
2024/01/05 02:46:41;;;;;;;0.40;0.40;;;;;;;-146.42;100.00;61981.06;5012219;28;20601;-66
2024/01/05 02:49:07;;;;;;;0.90;0.90;;;;;;;-146.42;100.00;61981.06;5012208;28;20234;-66
2024/01/05 02:51:32;;;;;;;0.83;0.83;;;;;;;-146.42;100.00;61981.06;5012134;28;20200;-66
2024/01/05 02:53:57;;;;;;;0.40;0.40;;;;;;;-146.42;100.00;61981.06;5011987;28;20197;-66
2024/01/05 02:56:23;;;;;;;0.50;0.50;;;;;;;-146.42;100.00;61981.06;5011964;28;20184;-66
2024/01/05 02:58:50;;;;;;;0.40;0.40;;;;;;;-146.42;100.00;61981.06;5012209;28;20872;-66
2024/01/05 03:01:16;;;;;;;0.40;0.40;;;;;;;-146.42;100.00;61981.06;5012092;28;20940;-66
2024/01/05 03:03:47;;;;;;;0.40;0.40;;;;;;;-146.42;100.00;61981.06;5012040;28;20682;-66
2024/01/05 03:06:16;;;;;;;0.47;0.47;;;;;;;-146.42;100.00;61981.06;5011871;28;20176;-66
2024/01/05 03:08:43;;;;;;;0.40;0.40;;;;;;;-146.42;100.00;61981.06;5011283;28;20242;-66
2024/01/05 03:11:08;;;;;;;0.40;0.40;;;;;;;-146.42;100.00;61981.06;5011219;28;20230;-66
2024/01/05 03:13:34;;;;;;;0.40;0.40;;;;;;;-146.42;100.00;61981.06;5011587;28;20200;-66
2024/01/05 03:16:00;;;;;;;0.40;0.40;;;;;;;-146.42;100.00;61981.06;5011783;28;20184;-66
2024/01/05 03:18:25;;;;;;;0.40;0.40;;;;;;;-146.42;100.00;61981.06;5011772;28;20176;-66
2024/01/05 03:20:51;;;;;;;0.33;0.33;;;;;;;-146.42;100.00;61981.06;5011630;28;20250;-66
2024/01/05 03:23:16;;;;;;;0.30;0.30;;;;;;;-146.42;100.00;61981.06;5010798;28;20554;-66
2024/01/05 03:25:43;;;;;;;0.70;0.70;;;;;;;-146.42;100.00;61981.06;5010955;28;20275;-66
2024/01/05 03:28:10;;;;;;;0.40;0.40;;;;;;;-146.42;100.00;61981.06;5011025;28;20180;-66
2024/01/05 03:30:37;;;;;;;0.83;0.83;;;;;;;-146.42;100.00;61981.06;5011515;28;20655;-66
2024/01/05 03:33:03;;;;;;;0.40;0.40;;;;;;;-146.42;100.00;61981.06;5011232;28;20703;-66
2024/01/05 03:35:29;;;;;;;0.40;0.40;;;;;;;-146.42;100.00;61981.06;5011339;28;20568;-66
2024/01/05 03:37:55;;;;;;;0.40;0.40;;;;;;;-146.42;100.00;61981.06;5011177;28;20172;-66
2024/01/05 03:40:21;;;;;;;0.57;0.57;;;;;;;-146.42;100.00;61981.06;5011263;28;20648;-66
2024/01/05 03:42:46;;;;;;;0.40;0.40;;;;;;;-146.42;100.00;61981.06;5011254;28;20183;-66
2024/01/05 03:45:11;;;;;;;2.83;2.70;;;;;;;-146.42;100.00;61981.06;5011166;28;20184;-66
2024/01/05 03:47:37;;;;;;;0.40;0.40;;;;;;;-146.42;100.00;61981.06;5011284;28;20169;-66
2024/01/05 03:50:03;;;;;;;0.30;0.30;;;;;;;-146.42;100.00;61981.06;5011234;28;20173;-66
2024/01/05 03:52:28;;;;;;;2.67;1.23;;;;;;;-146.42;100.00;61981.06;5011001;28;20283;-66
2024/01/05 03:54:54;;;;;;;0.40;0.40;;;;;;;-146.42;100.00;61981.06;5011099;28;20165;-66
2024/01/05 03:57:21;;;;;;;0.40;0.40;;;;;;;-146.42;100.00;61981.06;5011084;28;20180;-66
2024/01/05 03:59:47;;;;;;;0.40;0.40;;;;;;;-146.42;100.00;61981.06;5011035;28;20183;-66
2024/01/05 04:02:12;;;;;;;0.60;0.60;;;;;;;-146.42;100.00;61981.06;5010820;28;20181;-66
2024/01/05 04:04:39;;;;;;;0.40;0.40;;;;;;;-146.42;100.00;61981.06;5011061;28;20702;-66
2024/01/05 04:07:05;;;;;;;3.30;3.20;;;;;;;-146.42;100.00;61981.06;5010848;28;20378;-66
2024/01/05 04:09:31;;;;;;;0.50;0.50;;;;;;;-146.42;100.00;61981.06;5010519;28;20361;-66
2024/01/05 04:11:57;;;;;;;0.40;0.40;;;;;;;-146.42;100.00;61981.06;5009833;28;20742;-66
2024/01/05 04:14:23;;;;;;;0.50;0.50;;;;;;;-146.42;100.00;61981.06;4992727;28;20611;-66
2024/01/05 04:16:48;;;;;;;0.30;0.30;;;;;;;-146.42;100.00;61981.06;5009895;28;20188;-66
2024/01/05 04:19:14;;;;;;;0.40;0.40;;;;;;;-146.42;100.00;61981.06;5010261;28;20188;-66
2024/01/05 04:21:39;;;;;;;0.63;0.63;;;;;;;-146.42;100.00;61981.06;5010552;28;20595;-66
2024/01/05 04:24:05;;;;;;;0.50;0.50;;;;;;;-146.42;100.00;61981.06;5010442;28;20172;-66
2024/01/05 04:26:31;;;;;;;0.30;0.30;;;;;;;-146.42;100.00;61981.06;5010691;28;20216;-66
2024/01/05 04:28:57;;;;;;;0.90;0.90;;;;;;;-146.42;100.00;61981.06;5010175;28;20176;-66
2024/01/05 04:31:22;;;;;;;0.93;0.93;;;;;;;-146.42;100.00;61981.06;5009998;28;20528;-66
2024/01/05 04:33:48;;;;;;;0.40;0.40;;;;;;;-146.42;100.00;61981.06;5010347;28;20250;-66
2024/01/05 04:36:18;;;;;;;0.40;0.40;;;;;;;-146.42;100.00;61981.06;5010518;28;20171;-66
2024/01/05 04:38:44;;;;;;;0.40;0.40;;;;;;;-146.42;100.00;61981.06;5010257;28;20207;-66
2024/01/05 04:41:14;;;;;;;0.70;0.70;;;;;;;-146.42;100.00;61981.06;5012985;28;20199;-66
2024/01/05 04:43:40;;;;;;;0.30;0.30;;;;;;;-146.42;100.00;61981.06;5014579;28;20663;-66
2024/01/05 04:46:06;;;;;;;0.40;0.40;;;;;;;-146.42;100.00;61981.06;5014311;28;20176;-66
2024/01/05 04:48:32;;;;;;;0.30;0.30;;;;;;;-146.42;100.00;61981.06;5014315;28;20806;-66
2024/01/05 04:50:57;;;;;;;0.50;0.50;;;;;;;-146.42;100.00;61981.06;5014189;28;20259;-66
2024/01/05 04:53:23;;;;;;;0.40;0.40;;;;;;;-146.42;100.00;61981.06;5014234;28;20196;-66
2024/01/05 04:55:48;;;;;;;0.40;0.40;;;;;;;-146.42;100.00;61981.06;5014321;28;20200;-66
2024/01/05 04:58:14;;;;;;;0.30;0.30;;;;;;;-146.42;100.00;61981.06;5014166;28;20176;-66
2024/01/05 05:00:39;;;;;;;0.40;0.40;;;;;;;-146.42;100.00;61981.06;5014196;28;20188;-66
2024/01/05 05:03:05;;;;;;;0.40;0.40;;;;;;;-146.42;100.00;61981.06;5014178;28;20621;-66
2024/01/05 05:05:30;;;;;;;0.30;0.30;;;;;;;-146.42;100.00;61981.06;5014293;28;20211;-66
2024/01/05 05:07:57;;;;;;;0.53;0.53;;;;;;;-146.42;100.00;61981.06;5013117;28;20183;-66
2024/01/05 05:10:22;;;;;;;11.50;10.87;;;;;;;-146.42;100.00;61981.06;5013800;28;20596;-66
2024/01/05 05:12:48;;;;;;;37.83;34.47;;;;;;;-146.42;100.00;61981.06;5013851;28;20200;-66
2024/01/05 05:15:14;;;;;;;0.40;0.40;;;;;;;-146.42;100.00;61981.06;5008975;28;20181;-66
2024/01/05 05:17:39;;;;;;;0.30;0.30;;;;;;;-146.42;100.00;61981.06;5013596;28;20717;-66
2024/01/05 05:20:05;;;;;;;0.50;0.50;;;;;;;-146.42;100.00;61981.06;5011480;28;20176;-66
2024/01/05 05:22:30;;;;;;;0.40;0.40;;;;;;;-146.42;100.00;61981.06;5013758;28;20176;-66
2024/01/05 05:24:56;;;;;;;0.30;0.30;;;;;;;-146.42;100.00;61981.06;5013696;28;20235;-66
2024/01/05 05:27:21;;;;;;;0.40;0.40;;;;;;;-146.42;100.00;61981.06;5013603;28;20219;-66
2024/01/05 05:29:47;;;;;;;0.50;0.50;;;;;;;-146.42;100.00;61981.06;5013680;28;20168;-66
2024/01/05 05:32:13;;;;;;;0.40;0.40;;;;;;;-146.42;100.00;61981.06;5013651;28;20176;-66
2024/01/05 05:34:41;;;;;;;0.50;0.50;;;;;;;-146.42;100.00;61981.06;5013364;28;20187;-66
2024/01/05 05:37:06;;;;;;;0.40;0.40;;;;;;;-146.42;100.00;61981.06;5013477;28;20172;-66
2024/01/05 05:39:32;;;;;;;0.50;0.50;;;;;;;-146.42;100.00;61981.06;5013401;28;20243;-66
2024/01/05 05:41:57;;;;;;;0.50;0.50;;;;;;;-146.42;100.00;61981.06;5013401;28;20536;-66
2024/01/05 05:44:23;;;;;;;0.53;0.53;;;;;;;-146.42;100.00;61981.06;5013503;28;20176;-65
2024/01/05 05:46:48;;;;;;;0.47;0.47;;;;;;;-146.42;100.00;61981.06;5013583;28;20176;-66
2024/01/05 05:49:14;;;;;;;0.50;0.50;;;;;;;-146.42;100.00;61981.06;5013353;28;20181;-66
2024/01/05 05:51:39;;;;;;;1.50;1.50;;;;;;;-146.42;100.00;61981.06;5013169;28;20595;-66
2024/01/05 05:54:05;;;;;;;0.33;0.33;;;;;;;-146.42;100.00;61981.06;5013048;28;20247;-65
2024/01/05 05:56:30;;;;;;;0.40;0.40;;;;;;;-146.42;100.00;61981.06;5013259;28;20172;-65
2024/01/05 05:58:56;;;;;;;4.07;3.87;;;;;;;-146.42;100.00;61981.06;5013130;28;20180;-65
2024/01/05 06:01:23;;;;;;;0.40;0.40;;;;;;;-146.42;100.00;61981.06;5013342;28;20176;-65
2024/01/05 06:03:49;;;;;;;0.40;0.40;;;;;;;-146.42;100.00;61981.06;5012989;28;20180;-65
2024/01/05 06:06:23;;;;;;;0.50;0.50;;;;;;;-146.42;100.00;61981.06;4995429;28;20188;-67
2024/01/05 06:08:51;;;;;;;0.40;0.40;;;;;;;-146.42;100.00;61981.06;5012906;28;20171;-66
2024/01/05 06:11:18;;;;;;;0.40;0.40;;;;;;;-146.42;100.00;61981.06;5012718;28;20224;-66
2024/01/05 06:13:45;;;;;;;0.40;0.40;;;;;;;-146.42;100.00;61981.06;5012648;28;20212;-66
2024/01/05 06:16:11;;;;;;;0.63;0.63;;;;;;;-146.42;100.00;61981.06;5012722;28;20168;-67
2024/01/05 06:18:37;;;;;;;0.40;0.40;;;;;;;-146.42;100.00;61981.06;5012799;28;20192;-66
2024/01/05 06:21:03;;;;;;;0.40;0.40;;;;;;;-146.42;100.00;61981.06;5012750;28;20173;-66
2024/01/05 06:23:31;;;;;;;0.97;0.97;;;;;;;-146.42;100.00;61981.06;5012397;28;20181;-66
2024/01/05 06:25:56;;;;;;;0.40;0.40;;;;;;;-146.42;100.00;61981.06;5012638;28;20258;-66
2024/01/05 06:28:22;;;;;;;0.53;0.53;;;;;;;-146.42;100.00;61981.06;5012554;28;20699;-66
2024/01/05 06:30:48;;;;;;;0.33;0.33;;;;;;;-146.42;100.00;61981.06;5012474;28;20326;-66
2024/01/05 06:33:13;;;;;;;0.50;0.50;;;;;;;-146.42;100.00;61981.06;5012310;28;20287;-66
2024/01/05 06:35:39;;;;;;;0.30;0.30;;;;;;;-146.42;100.00;61981.06;5012372;28;20180;-66
2024/01/05 06:38:04;;;;;;;0.40;0.40;;;;;;;-146.42;100.00;61981.06;5012500;28;20560;-67
2024/01/05 06:40:29;;;;;;;0.50;0.50;;;;;;;-146.42;100.00;61981.06;5012510;28;20176;-66
2024/01/05 06:42:57;;;;;;;0.70;0.70;;;;;;;-146.42;100.00;61981.06;5012448;28;20173;-66
2024/01/05 06:45:23;;;;;;;0.70;0.70;;;;;;;-146.42;100.00;61981.06;5012146;28;20168;-66
2024/01/05 06:47:49;;;;;;;2.93;2.50;;;;;;;-146.42;100.00;61981.06;5006178;28;20185;-67
2024/01/05 06:50:14;;;;;;;0.40;0.40;;;;;;;-146.42;100.00;61981.06;4992539;28;20184;-67
2024/01/05 06:52:40;;;;;;;0.47;0.47;;;;;;;-146.42;100.00;61981.06;4992577;28;20716;-67
2024/01/05 06:55:06;;;;;;;0.50;0.50;;;;;;;-146.42;100.00;61981.06;5000033;28;20176;-66
2024/01/05 06:57:31;;;;;;;1.60;1.60;;;;;;;-146.42;100.00;61981.06;5005920;28;20170;-67
2024/01/05 06:59:57;;;;;;;0.47;0.47;;;;;;;-146.42;100.00;61981.06;4990391;28;20169;-67
2024/01/05 07:02:23;;;;;;;8.27;5.83;;;;;;;-146.42;100.00;61981.06;4992082;28;20189;-67
2024/01/05 07:04:48;;;;;;;2.10;1.90;;;;;;;-146.42;100.00;61981.06;4991706;28;20199;-67
2024/01/05 07:07:14;;;;;;;1.10;1.10;;;;;;;-146.42;100.00;61981.06;4993118;28;20633;-67
2024/01/05 07:09:40;;;;;;;0.87;0.87;;;;;;;-146.42;100.00;61981.06;4992584;28;20225;-67
2024/01/05 07:12:06;;;;;;;0.90;0.90;;;;;;;-146.42;100.00;61981.06;4991747;28;20715;-67
2024/01/05 07:14:31;;;;;;;1.20;1.20;;;;;;;-146.42;100.00;61981.06;4991642;28;20229;-67
2024/01/05 07:16:58;;;;;;;0.70;0.70;;;;;;;-146.42;100.00;61981.06;4991781;28;20173;-66
2024/01/05 07:19:24;;;;;;;18.43;7.10;;;;;;;-146.42;100.00;61981.06;4991785;28;20169;-67
2024/01/05 07:21:50;;;;;;;1.03;1.03;;;;;;;-146.42;100.00;61981.06;4991917;28;20204;-67
2024/01/05 07:24:15;;;;;;;0.40;0.40;;;;;;;-146.42;100.00;61981.06;4991474;28;20590;-67
2024/01/05 07:26:44;;;;;;;2.80;1.53;;;;;;;-146.42;100.00;61981.06;4991364;28;20169;-67
2024/01/05 07:29:10;;;;;;;0.40;0.40;;;;;;;-146.42;100.00;61981.06;4991687;28;20169;-68
2024/01/05 07:31:35;;;;;;;1.13;1.13;;;;;;;-146.42;100.00;61981.06;4991609;28;20268;-68
2024/01/05 07:34:02;;;;;;;0.40;0.40;;;;;;;-146.42;100.00;61981.06;4991471;28;21080;-68
2024/01/05 07:36:28;;;;;;;0.60;0.60;;;;;;;-146.42;100.00;61981.06;4991317;28;20177;-68
2024/01/05 07:38:58;;;;;;;3.93;3.63;;;;;;;-146.42;100.00;61981.06;4991417;28;20228;-69
2024/01/05 07:41:25;;;;;;;0.80;0.80;;;;;;;-146.42;100.00;61981.06;4990858;28;20185;-68
2024/01/05 07:43:50;;;;;;;0.93;0.93;;;;;;;-146.42;100.00;61981.06;4991038;28;20173;-68
2024/01/05 07:46:16;;;;;;;0.85;0.85;;;;;;;-146.42;100.00;61981.06;4991301;28;20997;-68
2024/01/05 07:48:41;;;;;;;0.82;0.82;;;;;;;-146.42;100.00;61981.06;4993738;28;20647;-68
2024/01/05 07:51:07;;;;;;;1.17;1.17;;;;;;;-146.42;100.00;61981.06;4991024;28;20188;-68
2024/01/05 07:53:33;;;;;;;0.73;0.73;;;;;;;-146.42;100.00;61981.06;4990994;28;20193;-68
2024/01/05 07:56:03;;;;;;;1.60;1.52;;;;;;;-146.42;100.00;61981.06;4997160;28;20171;-69
2024/01/05 07:58:29;;;;;;;0.95;0.95;;;;;;;-146.42;100.00;61981.06;4991021;28;20181;-68
2024/01/05 08:00:54;;;;;;;1.00;1.00;;;;;;;-146.42;100.00;61981.06;4990928;28;20173;-68
2024/01/05 08:03:21;;;;;;;6.28;1.95;;;;;;;-146.42;100.00;61981.06;4990860;28;20235;-69
2024/01/05 08:05:47;;;;;;;0.60;0.60;;;;;;;-146.42;100.00;61981.06;4991021;28;20697;-69
2024/01/05 08:08:13;;;;;;;0.50;0.50;;;;;;;-146.42;100.00;61981.06;4973275;28;20597;-68
2024/01/05 08:10:39;;;;;;;0.70;0.70;;;;;;;-146.42;100.00;61981.06;4990604;28;20212;-69
2024/01/05 08:13:04;;;;;;;2.47;0.98;;;;;;;-146.42;100.00;61981.06;4990880;28;20215;-69
2024/01/05 08:15:30;;;;;;;0.80;0.80;;;;;;;-146.42;100.00;61981.06;4990778;28;20165;-69
2024/01/05 08:17:56;;;;;;;0.93;0.93;;;;;;;-146.42;100.00;61981.06;4991093;28;20203;-69
2024/01/05 08:20:21;;;;;;;1.10;1.00;;;;;;;-146.42;100.00;61981.06;4990744;28;20185;-69
2024/01/05 08:22:47;;;;;;;0.40;0.40;;;;;;;-146.42;100.00;61981.06;4990678;28;20252;-69
2024/01/05 08:25:16;;;;;;;0.70;0.70;;;;;;;-146.42;100.00;61981.06;4990700;28;20586;-68
2024/01/05 08:27:42;;;;;;;0.75;0.75;;;;;;;-146.42;100.00;61981.06;4990641;28;20173;-69
2024/01/05 08:30:14;;;;;;;0.52;0.52;;;;;;;-146.42;100.00;61981.06;4990348;28;20185;-68
2024/01/05 08:32:42;;;;;;;0.93;0.93;;;;;;;-146.42;100.00;61981.06;4990578;28;20203;-68
2024/01/05 08:35:08;;;;;;;0.98;0.98;;;;;;;-146.42;100.00;61981.06;4990618;28;20180;-68
2024/01/05 08:37:34;;;;;;;0.60;0.60;;;;;;;-146.42;100.00;61981.06;4990651;28;20177;-68
2024/01/05 08:40:00;;;;;;;6.32;5.70;;;;;;;-146.42;100.00;61981.06;4990621;28;20167;-67
2024/01/05 08:42:26;;;;;;;0.60;0.60;;;;;;;-146.42;100.00;61981.06;4990420;28;20181;-67
2024/01/05 08:44:51;;;;;;;0.43;0.43;;;;;;;-146.42;100.00;61981.06;4990556;28;20178;-67
2024/01/05 08:47:17;;;;;;;0.40;0.40;;;;;;;-146.42;100.00;61981.06;4992526;28;20706;-67
2024/01/05 08:49:43;;;;;;;0.50;0.50;;;;;;;-146.42;100.00;61981.06;4989862;28;20195;-67
2024/01/05 08:52:08;;;;;;;0.40;0.40;;;;;;;-146.42;100.00;61981.06;5009919;28;20181;-67
2024/01/05 08:54:34;;;;;;;0.70;0.70;;;;;;;-146.42;100.00;61981.06;5009674;28;20228;-67
2024/01/05 08:57:00;;;;;;;0.70;0.70;;;;;;;-146.42;100.00;61981.06;5010086;28;20572;-67
2024/01/05 08:59:25;;;;;;;2.13;1.97;;;;;;;-146.42;100.00;61981.06;5009938;28;20185;-67
2024/01/05 09:01:51;;;;;;;0.53;0.53;;;;;;;-146.42;100.00;61981.06;5010061;28;20176;-67
2024/01/05 09:04:16;;;;;;;0.90;0.90;;;;;;;-146.42;100.00;61981.06;5009618;28;20180;-67
2024/01/05 09:06:42;;;;;;;0.60;0.60;;;;;;;-146.42;100.00;61981.06;5009877;28;20242;-67
2024/01/05 09:09:08;;;;;;;0.33;0.33;;;;;;;-146.42;100.00;61981.06;4992143;28;20580;-67
2024/01/05 09:11:35;;;;;;;0.50;0.50;;;;;;;-146.42;100.00;61981.06;5009993;28;20544;-67
2024/01/05 09:14:00;;;;;;;0.40;0.40;;;;;;;-146.42;100.00;61981.06;5009360;28;20197;-67
2024/01/05 09:16:26;;;;;;;3.30;2.93;;;;;;;-146.42;100.00;61981.06;5009869;28;20234;-66
2024/01/05 09:18:51;;;;;;;0.40;0.40;;;;;;;-146.42;100.00;61981.06;5009593;28;20565;-66
2024/01/05 09:21:17;;;;;;;0.47;0.47;;;;;;;-146.42;100.00;61981.06;5009850;28;20565;-66
2024/01/05 09:23:43;;;;;;;1.53;1.43;;;;;;;-146.42;100.00;61981.06;5009430;28;20183;-66
2024/01/05 09:26:15;;;;;;;0.47;0.47;;;;;;;-146.42;100.00;61981.06;4992546;28;20660;-66
2024/01/05 09:28:41;;;;;;;0.40;0.40;;;;;;;-146.42;100.00;61981.06;5012823;28;20668;-67
2024/01/05 09:31:07;;;;;;;0.50;0.50;;;;;;;-146.42;100.00;61981.06;5013239;28;20259;-66
2024/01/05 09:33:32;;;;;;;0.50;0.50;;;;;;;-146.42;100.00;61981.06;5012901;28;20208;-67
2024/01/05 09:35:59;;;;;;;0.37;0.37;;;;;;;-146.42;100.00;61981.06;5013111;28;20180;-66
2024/01/05 09:38:25;;;;;;;0.40;0.40;;;;;;;-146.42;100.00;61981.06;5012604;28;20184;-66
2024/01/05 09:40:54;;;;;;;1.07;1.07;;;;;;;-146.42;100.00;61981.06;5013209;28;20183;-66
2024/01/05 09:43:24;;;;;;;0.40;0.40;;;;;;;-146.42;100.00;61981.06;5012792;28;20188;-66
2024/01/05 09:45:51;;;;;;;0.70;0.70;;;;;;;-146.42;100.00;61981.06;5012697;28;20648;-66
2024/01/05 09:48:21;;;;;;;0.50;0.50;;;;;;;-146.42;100.00;61981.06;4994415;28;20559;-66
2024/01/05 09:50:57;;;;;;;0.40;0.40;;;;;;;-146.42;100.00;61981.06;4993230;28;20185;-66
2024/01/05 09:53:23;;;;;;;0.70;0.70;;;;;;;-146.42;100.00;61981.06;4975989;28;20219;-66
2024/01/05 09:55:50;;;;;;;0.40;0.40;;;;;;;-146.42;100.00;61981.06;4993537;28;20177;-66
2024/01/05 09:58:16;;;;;;;0.40;0.40;;;;;;;-146.42;100.00;61981.06;4993490;28;20207;-67
2024/01/05 10:00:49;;;;;;;0.40;0.40;;;;;;;-146.42;100.00;61981.06;5012932;28;20182;-66
2024/01/05 10:03:24;;;;;;;0.40;0.40;;;;;;;-146.42;100.00;61981.06;4995046;28;20549;-65
2024/01/05 10:05:50;;;;;;;0.40;0.40;;;;;;;-146.42;100.00;61981.06;5012562;28;20183;-66
2024/01/05 10:08:16;;;;;;;1.33;1.33;;;;;;;-146.42;100.00;61981.06;5012435;28;20179;-67
2024/01/05 10:10:48;;;;;;;0.50;0.50;;;;;;;-146.42;100.00;61981.06;4994671;28;20227;-67
2024/01/05 10:13:17;;;;;;;0.50;0.50;;;;;;;-146.42;100.00;61981.06;5011913;28;20192;-67
2024/01/05 10:15:53;;;;;;;0.30;0.30;;;;;;;-146.42;100.00;61981.06;5012830;28;20184;-67
2024/01/05 10:18:18;;;;;;;0.40;0.40;;;;;;;-146.42;100.00;61981.06;5012273;28;20669;-67
2024/01/05 10:20:45;;;;;;;0.30;0.30;;;;;;;-146.42;100.00;61981.06;5012140;28;20196;-67
2024/01/05 10:23:13;;;;;;;0.30;0.30;;;;;;;-146.42;100.00;61981.06;5012216;28;20173;-67
2024/01/05 10:25:39;;;;;;;0.40;0.40;;;;;;;-146.42;100.00;61981.06;5012110;28;20268;-67
2024/01/05 10:28:19;;;;;;;0.93;0.80;;;;;;;-146.42;100.00;61981.06;5012031;28;20251;-67
2024/01/05 10:30:44;;;;;;;0.40;0.40;;;;;;;-146.42;100.00;61981.06;5012452;28;20234;-67
2024/01/05 10:33:10;;;;;;;0.40;0.40;;;;;;;-146.42;100.00;61981.06;5012075;28;20207;-67
2024/01/05 10:35:35;;;;;;;0.67;0.67;;;;;;;-146.42;100.00;61981.06;5012255;28;20191;-66
2024/01/05 10:38:04;;;;;;;0.50;0.50;;;;;;;-146.42;100.00;61981.06;5010099;28;20169;-66
2024/01/05 10:40:30;;;;;;;0.60;0.60;;;;;;;-146.42;100.00;61981.06;5011019;28;20299;-66
2024/01/05 10:43:16;;;;;;;1.00;1.00;;;;;;;-146.42;100.00;61981.06;5011292;28;20251;-66
2024/01/05 10:45:42;;;;;;;0.30;0.30;;;;;;;-146.42;100.00;61981.06;5011922;28;20204;-66
2024/01/05 10:48:10;;;;;;;0.40;0.40;;;;;;;-146.42;100.00;61981.06;5011947;28;20191;-66
2024/01/05 10:50:41;;;;;;;0.90;0.90;;;;;;;-146.42;100.00;61981.06;5011886;28;20176;-66
2024/01/05 10:53:10;;;;;;;0.40;0.40;;;;;;;-146.42;100.00;61981.06;4994742;28;20364;-66
2024/01/05 10:55:37;;;;;;;0.80;0.80;;;;;;;-146.42;100.00;61981.06;5011822;28;20187;-66
2024/01/05 10:58:06;;;;;;;0.40;0.40;;;;;;;-146.42;100.00;61981.06;5011557;28;20184;-66
2024/01/05 11:00:32;;;;;;;0.40;0.40;;;;;;;-146.42;100.00;61981.06;5011920;28;20267;-66
2024/01/05 11:03:08;;;;;;;0.40;0.40;;;;;;;-146.42;100.00;61981.06;5011873;28;20227;-66
2024/01/05 11:05:34;;;;;;;0.70;0.70;;;;;;;-146.42;100.00;61981.06;5011587;28;20176;-66